sensor_id;sensor_type;location;lat;lon;timestamp;temperature;humidity
11617;DHT22;5864;52.998;9.068;2023-07-20T00:02:25;16.60;81.70
11617;DHT22;5864;52.998;9.068;2023-07-20T00:05:11;16.60;1.00
11617;DHT22;5864;52.998;9.068;2023-07-20T00:07:58;16.60;3.80
11617;DHT22;5864;52.998;9.068;2023-07-20T00:10:43;16.60;99.90
11617;DHT22;5864;52.998;9.068;2023-07-20T00:13:29;16.60;1.00
11617;DHT22;5864;52.998;9.068;2023-07-20T00:16:14;16.60;99.90
11617;DHT22;5864;52.998;9.068;2023-07-20T00:19:00;16.60;99.90
11617;DHT22;5864;52.998;9.068;2023-07-20T00:21:46;16.60;99.90
11617;DHT22;5864;52.998;9.068;2023-07-20T00:24:33;16.60;1.00
11617;DHT22;5864;52.998;9.068;2023-07-20T00:27:19;16.60;99.90
11617;DHT22;5864;52.998;9.068;2023-07-20T00:30:06;16.60;99.90
11617;DHT22;5864;52.998;9.068;2023-07-20T00:32:52;16.60;99.90
11617;DHT22;5864;52.998;9.068;2023-07-20T00:35:38;16.60;1.00
11617;DHT22;5864;52.998;9.068;2023-07-20T00:38:24;16.50;1.00
11617;DHT22;5864;52.998;9.068;2023-07-20T00:41:11;16.50;1.00
11617;DHT22;5864;52.998;9.068;2023-07-20T00:43:57;16.50;1.00
11617;DHT22;5864;52.998;9.068;2023-07-20T00:46:43;16.40;1.00
11617;DHT22;5864;52.998;9.068;2023-07-20T00:49:28;16.50;1.00
11617;DHT22;5864;52.998;9.068;2023-07-20T00:52:15;16.40;1.00
11617;DHT22;5864;52.998;9.068;2023-07-20T00:55:01;16.40;99.90
11617;DHT22;5864;52.998;9.068;2023-07-20T00:57:48;16.30;99.90
11617;DHT22;5864;52.998;9.068;2023-07-20T01:00:33;16.30;99.90
11617;DHT22;5864;52.998;9.068;2023-07-20T01:03:19;16.40;99.90
11617;DHT22;5864;52.998;9.068;2023-07-20T01:06:10;16.40;99.90
11617;DHT22;5864;52.998;9.068;2023-07-20T01:09:08;16.40;99.90
11617;DHT22;5864;52.998;9.068;2023-07-20T01:12:00;16.40;99.90
11617;DHT22;5864;52.998;9.068;2023-07-20T01:14:49;16.30;99.90
11617;DHT22;5864;52.998;9.068;2023-07-20T01:17:35;16.40;1.00
11617;DHT22;5864;52.998;9.068;2023-07-20T01:20:21;16.40;99.90
11617;DHT22;5864;52.998;9.068;2023-07-20T01:23:47;16.40;99.90
11617;DHT22;5864;52.998;9.068;2023-07-20T01:30:24;16.40;1.00
11617;DHT22;5864;52.998;9.068;2023-07-20T01:33:13;16.40;99.90
11617;DHT22;5864;52.998;9.068;2023-07-20T01:36:02;16.40;99.90
11617;DHT22;5864;52.998;9.068;2023-07-20T01:38:49;16.40;99.90
11617;DHT22;5864;52.998;9.068;2023-07-20T01:41:34;16.20;1.00
11617;DHT22;5864;52.998;9.068;2023-07-20T01:44:20;16.10;1.00
11617;DHT22;5864;52.998;9.068;2023-07-20T01:47:05;16.00;1.00
11617;DHT22;5864;52.998;9.068;2023-07-20T01:49:52;16.10;1.00
11617;DHT22;5864;52.998;9.068;2023-07-20T01:52:38;16.00;1.00
11617;DHT22;5864;52.998;9.068;2023-07-20T01:55:23;16.10;1.00
11617;DHT22;5864;52.998;9.068;2023-07-20T01:58:09;16.10;1.00
11617;DHT22;5864;52.998;9.068;2023-07-20T02:00:54;16.20;1.00
11617;DHT22;5864;52.998;9.068;2023-07-20T02:03:40;16.20;1.00
11617;DHT22;5864;52.998;9.068;2023-07-20T02:06:27;16.10;1.00
11617;DHT22;5864;52.998;9.068;2023-07-20T02:09:12;16.00;13.30
11617;DHT22;5864;52.998;9.068;2023-07-20T02:11:58;15.90;38.00
11617;DHT22;5864;52.998;9.068;2023-07-20T02:14:44;15.80;94.20
11617;DHT22;5864;52.998;9.068;2023-07-20T02:17:30;15.80;99.90
11617;DHT22;5864;52.998;9.068;2023-07-20T02:20:15;15.80;99.90
11617;DHT22;5864;52.998;9.068;2023-07-20T02:23:03;15.70;99.90
11617;DHT22;5864;52.998;9.068;2023-07-20T02:25:49;15.80;99.90
11617;DHT22;5864;52.998;9.068;2023-07-20T02:28:35;15.90;99.90
11617;DHT22;5864;52.998;9.068;2023-07-20T02:31:20;15.90;97.50
11617;DHT22;5864;52.998;9.068;2023-07-20T02:34:06;15.90;99.90
11617;DHT22;5864;52.998;9.068;2023-07-20T02:36:52;15.90;95.50
11617;DHT22;5864;52.998;9.068;2023-07-20T02:39:42;15.90;94.10
11617;DHT22;5864;52.998;9.068;2023-07-20T02:42:27;15.80;99.50
11617;DHT22;5864;52.998;9.068;2023-07-20T02:45:13;15.90;99.90
11617;DHT22;5864;52.998;9.068;2023-07-20T02:47:58;15.90;99.90
11617;DHT22;5864;52.998;9.068;2023-07-20T02:50:45;15.90;99.90
11617;DHT22;5864;52.998;9.068;2023-07-20T02:53:31;15.90;99.90
11617;DHT22;5864;52.998;9.068;2023-07-20T02:56:18;16.00;99.90
11617;DHT22;5864;52.998;9.068;2023-07-20T02:59:04;15.80;99.90
11617;DHT22;5864;52.998;9.068;2023-07-20T03:01:49;15.80;99.90
11617;DHT22;5864;52.998;9.068;2023-07-20T03:04:34;15.70;99.90
11617;DHT22;5864;52.998;9.068;2023-07-20T03:07:20;15.50;99.90
11617;DHT22;5864;52.998;9.068;2023-07-20T03:10:07;15.50;99.90
11617;DHT22;5864;52.998;9.068;2023-07-20T03:12:55;15.50;99.90
11617;DHT22;5864;52.998;9.068;2023-07-20T03:15:40;15.50;99.90
11617;DHT22;5864;52.998;9.068;2023-07-20T03:18:26;15.50;99.90
11617;DHT22;5864;52.998;9.068;2023-07-20T03:21:12;15.60;99.90
11617;DHT22;5864;52.998;9.068;2023-07-20T03:23:57;15.60;99.90
11617;DHT22;5864;52.998;9.068;2023-07-20T03:26:43;15.70;99.90
11617;DHT22;5864;52.998;9.068;2023-07-20T03:29:31;15.70;99.90
11617;DHT22;5864;52.998;9.068;2023-07-20T03:32:17;15.70;99.90
11617;DHT22;5864;52.998;9.068;2023-07-20T03:35:04;15.60;99.40
11617;DHT22;5864;52.998;9.068;2023-07-20T03:37:50;15.60;99.90
11617;DHT22;5864;52.998;9.068;2023-07-20T03:40:35;15.70;99.40
11617;DHT22;5864;52.998;9.068;2023-07-20T03:43:21;15.70;99.90
11617;DHT22;5864;52.998;9.068;2023-07-20T03:46:09;15.70;99.90
11617;DHT22;5864;52.998;9.068;2023-07-20T03:48:54;15.70;97.90
11617;DHT22;5864;52.998;9.068;2023-07-20T03:51:40;15.80;99.90
11617;DHT22;5864;52.998;9.068;2023-07-20T03:54:25;15.70;99.90
11617;DHT22;5864;52.998;9.068;2023-07-20T03:57:11;15.70;98.80
11617;DHT22;5864;52.998;9.068;2023-07-20T03:59:56;15.80;99.90
11617;DHT22;5864;52.998;9.068;2023-07-20T04:02:44;15.80;96.20
11617;DHT22;5864;52.998;9.068;2023-07-20T04:05:29;15.80;99.60
11617;DHT22;5864;52.998;9.068;2023-07-20T04:08:15;15.80;99.90
11617;DHT22;5864;52.998;9.068;2023-07-20T04:11:01;15.90;99.90
11617;DHT22;5864;52.998;9.068;2023-07-20T04:13:47;15.90;99.90
11617;DHT22;5864;52.998;9.068;2023-07-20T04:16:33;15.80;97.30
11617;DHT22;5864;52.998;9.068;2023-07-20T04:19:20;15.80;97.70
11617;DHT22;5864;52.998;9.068;2023-07-20T04:22:05;15.80;87.40
11617;DHT22;5864;52.998;9.068;2023-07-20T04:24:51;15.80;93.30
11617;DHT22;5864;52.998;9.068;2023-07-20T04:27:36;15.80;75.80
11617;DHT22;5864;52.998;9.068;2023-07-20T04:30:22;15.80;75.70
11617;DHT22;5864;52.998;9.068;2023-07-20T04:33:07;15.90;85.70
11617;DHT22;5864;52.998;9.068;2023-07-20T04:35:54;15.90;72.60
11617;DHT22;5864;52.998;9.068;2023-07-20T04:38:40;15.80;61.40
11617;DHT22;5864;52.998;9.068;2023-07-20T04:41:26;15.90;79.60
11617;DHT22;5864;52.998;9.068;2023-07-20T04:44:13;15.90;64.80
11617;DHT22;5864;52.998;9.068;2023-07-20T04:46:58;15.90;80.10
11617;DHT22;5864;52.998;9.068;2023-07-20T04:49:44;15.90;94.60
11617;DHT22;5864;52.998;9.068;2023-07-20T04:52:31;15.90;95.00
11617;DHT22;5864;52.998;9.068;2023-07-20T04:55:17;16.00;99.90
11617;DHT22;5864;52.998;9.068;2023-07-20T04:58:03;16.10;99.90
11617;DHT22;5864;52.998;9.068;2023-07-20T05:00:49;16.10;99.90
11617;DHT22;5864;52.998;9.068;2023-07-20T05:03:35;16.20;96.90
11617;DHT22;5864;52.998;9.068;2023-07-20T05:06:20;16.10;97.50
11617;DHT22;5864;52.998;9.068;2023-07-20T05:09:08;16.20;68.00
11617;DHT22;5864;52.998;9.068;2023-07-20T05:11:54;16.30;94.30
11617;DHT22;5864;52.998;9.068;2023-07-20T05:14:40;16.40;99.90
11617;DHT22;5864;52.998;9.068;2023-07-20T05:17:26;16.50;79.50
11617;DHT22;5864;52.998;9.068;2023-07-20T05:20:12;16.60;45.00
11617;DHT22;5864;52.998;9.068;2023-07-20T05:22:58;16.60;35.90
11617;DHT22;5864;52.998;9.068;2023-07-20T05:25:45;16.80;56.60
11617;DHT22;5864;52.998;9.068;2023-07-20T05:28:31;17.00;11.70
11617;DHT22;5864;52.998;9.068;2023-07-20T05:31:17;16.90;1.00
11617;DHT22;5864;52.998;9.068;2023-07-20T05:34:03;17.00;1.00
11617;DHT22;5864;52.998;9.068;2023-07-20T05:36:48;17.20;1.00
11617;DHT22;5864;52.998;9.068;2023-07-20T05:39:34;17.30;1.00
11617;DHT22;5864;52.998;9.068;2023-07-20T05:42:21;17.40;1.00
11617;DHT22;5864;52.998;9.068;2023-07-20T05:45:07;17.50;1.00
11617;DHT22;5864;52.998;9.068;2023-07-20T05:47:53;17.60;1.00
11617;DHT22;5864;52.998;9.068;2023-07-20T05:50:41;17.80;1.00
11617;DHT22;5864;52.998;9.068;2023-07-20T05:53:27;17.90;99.90
11617;DHT22;5864;52.998;9.068;2023-07-20T05:56:13;18.00;25.90
11617;DHT22;5864;52.998;9.068;2023-07-20T05:59:00;18.00;61.60
11617;DHT22;5864;52.998;9.068;2023-07-20T06:01:46;17.80;99.90
11617;DHT22;5864;52.998;9.068;2023-07-20T06:04:32;17.80;4.50
11617;DHT22;5864;52.998;9.068;2023-07-20T06:07:18;18.20;12.90
11617;DHT22;5864;52.998;9.068;2023-07-20T06:10:06;17.90;1.00
11617;DHT22;5864;52.998;9.068;2023-07-20T06:12:52;18.00;1.00
11617;DHT22;5864;52.998;9.068;2023-07-20T06:15:40;18.00;99.90
11617;DHT22;5864;52.998;9.068;2023-07-20T06:18:26;18.00;1.00
11617;DHT22;5864;52.998;9.068;2023-07-20T06:21:12;18.20;99.90
11617;DHT22;5864;52.998;9.068;2023-07-20T06:23:57;18.60;98.40
11617;DHT22;5864;52.998;9.068;2023-07-20T06:26:43;18.70;1.00
11617;DHT22;5864;52.998;9.068;2023-07-20T06:29:29;18.70;99.90
11617;DHT22;5864;52.998;9.068;2023-07-20T06:32:17;18.90;99.90
11617;DHT22;5864;52.998;9.068;2023-07-20T06:35:03;19.10;89.00
11617;DHT22;5864;52.998;9.068;2023-07-20T06:37:48;19.10;1.00
11617;DHT22;5864;52.998;9.068;2023-07-20T06:40:34;19.20;99.90
11617;DHT22;5864;52.998;9.068;2023-07-20T06:43:20;19.20;99.90
11617;DHT22;5864;52.998;9.068;2023-07-20T06:46:06;19.50;1.00
11617;DHT22;5864;52.998;9.068;2023-07-20T06:48:53;19.70;1.00
11617;DHT22;5864;52.998;9.068;2023-07-20T06:51:39;20.10;1.00
11617;DHT22;5864;52.998;9.068;2023-07-20T06:54:25;20.00;1.00
11617;DHT22;5864;52.998;9.068;2023-07-20T06:57:10;20.00;99.90
11617;DHT22;5864;52.998;9.068;2023-07-20T06:59:56;20.00;99.90
11617;DHT22;5864;52.998;9.068;2023-07-20T07:02:41;20.10;99.90
11617;DHT22;5864;52.998;9.068;2023-07-20T07:05:28;20.10;99.90
11617;DHT22;5864;52.998;9.068;2023-07-20T07:08:14;20.50;99.90
11617;DHT22;5864;52.998;9.068;2023-07-20T07:11:00;20.80;99.90
11617;DHT22;5864;52.998;9.068;2023-07-20T07:13:45;20.90;99.90
11617;DHT22;5864;52.998;9.068;2023-07-20T07:16:34;21.30;99.90
11617;DHT22;5864;52.998;9.068;2023-07-20T07:19:19;21.30;99.90
11617;DHT22;5864;52.998;9.068;2023-07-20T07:22:06;21.00;99.90
11617;DHT22;5864;52.998;9.068;2023-07-20T07:24:52;21.20;99.90
11617;DHT22;5864;52.998;9.068;2023-07-20T07:27:38;20.90;99.90
11617;DHT22;5864;52.998;9.068;2023-07-20T07:30:23;20.80;99.90
11617;DHT22;5864;52.998;9.068;2023-07-20T07:33:09;20.90;99.90
11617;DHT22;5864;52.998;9.068;2023-07-20T07:35:55;21.50;99.90
11617;DHT22;5864;52.998;9.068;2023-07-20T07:38:43;22.10;99.90
11617;DHT22;5864;52.998;9.068;2023-07-20T07:41:28;22.60;99.90
11617;DHT22;5864;52.998;9.068;2023-07-20T07:44:14;22.50;99.90
11617;DHT22;5864;52.998;9.068;2023-07-20T07:47:00;22.60;99.90
11617;DHT22;5864;52.998;9.068;2023-07-20T07:49:46;22.70;99.90
11617;DHT22;5864;52.998;9.068;2023-07-20T07:52:32;23.00;99.90
11617;DHT22;5864;52.998;9.068;2023-07-20T07:55:19;22.80;99.90
11617;DHT22;5864;52.998;9.068;2023-07-20T07:58:04;22.70;99.90
11617;DHT22;5864;52.998;9.068;2023-07-20T08:00:50;22.90;99.90
11617;DHT22;5864;52.998;9.068;2023-07-20T08:03:35;22.30;99.90
11617;DHT22;5864;52.998;9.068;2023-07-20T08:06:21;22.10;99.90
11617;DHT22;5864;52.998;9.068;2023-07-20T08:09:08;21.30;99.90
11617;DHT22;5864;52.998;9.068;2023-07-20T08:11:54;21.50;99.90
11617;DHT22;5864;52.998;9.068;2023-07-20T08:14:40;21.90;99.90
11617;DHT22;5864;52.998;9.068;2023-07-20T08:17:26;22.30;99.90
11617;DHT22;5864;52.998;9.068;2023-07-20T08:20:13;23.20;99.90
11617;DHT22;5864;52.998;9.068;2023-07-20T08:22:58;23.20;99.90
11617;DHT22;5864;52.998;9.068;2023-07-20T08:25:44;23.90;99.90
11617;DHT22;5864;52.998;9.068;2023-07-20T08:28:31;24.10;99.90
11617;DHT22;5864;52.998;9.068;2023-07-20T08:31:17;24.50;99.90
11617;DHT22;5864;52.998;9.068;2023-07-20T08:34:02;24.30;99.90
11617;DHT22;5864;52.998;9.068;2023-07-20T08:36:48;24.30;99.90
11617;DHT22;5864;52.998;9.068;2023-07-20T08:39:34;23.70;99.90
11617;DHT22;5864;52.998;9.068;2023-07-20T08:42:19;23.60;99.90
11617;DHT22;5864;52.998;9.068;2023-07-20T08:45:09;24.10;99.90
11617;DHT22;5864;52.998;9.068;2023-07-20T08:47:57;24.80;99.90
11617;DHT22;5864;52.998;9.068;2023-07-20T08:50:44;25.30;99.90
11617;DHT22;5864;52.998;9.068;2023-07-20T08:53:32;25.20;99.90
11617;DHT22;5864;52.998;9.068;2023-07-20T08:56:18;25.10;99.90
11617;DHT22;5864;52.998;9.068;2023-07-20T08:59:05;24.90;99.90
11617;DHT22;5864;52.998;9.068;2023-07-20T09:01:52;24.90;99.90
11617;DHT22;5864;52.998;9.068;2023-07-20T09:04:39;24.70;99.90
11617;DHT22;5864;52.998;9.068;2023-07-20T09:07:25;23.50;99.90
11617;DHT22;5864;52.998;9.068;2023-07-20T09:10:11;23.20;99.90
11617;DHT22;5864;52.998;9.068;2023-07-20T09:12:57;23.50;99.90
11617;DHT22;5864;52.998;9.068;2023-07-20T09:15:46;24.40;99.90
11617;DHT22;5864;52.998;9.068;2023-07-20T09:18:34;25.00;99.90
11617;DHT22;5864;52.998;9.068;2023-07-20T09:21:19;25.50;99.90
11617;DHT22;5864;52.998;9.068;2023-07-20T09:24:06;25.40;99.90
11617;DHT22;5864;52.998;9.068;2023-07-20T09:26:52;26.10;99.90
11617;DHT22;5864;52.998;9.068;2023-07-20T09:29:47;26.40;99.90
11617;DHT22;5864;52.998;9.068;2023-07-20T09:32:38;26.50;99.90
11617;DHT22;5864;52.998;9.068;2023-07-20T09:35:27;26.50;99.90
11617;DHT22;5864;52.998;9.068;2023-07-20T09:38:14;26.50;99.90
11617;DHT22;5864;52.998;9.068;2023-07-20T09:41:00;27.00;99.90
11617;DHT22;5864;52.998;9.068;2023-07-20T09:43:46;27.20;99.90
11617;DHT22;5864;52.998;9.068;2023-07-20T09:46:41;27.60;99.90
11617;DHT22;5864;52.998;9.068;2023-07-20T09:49:26;27.50;99.90
11617;DHT22;5864;52.998;9.068;2023-07-20T09:52:14;27.50;99.90
11617;DHT22;5864;52.998;9.068;2023-07-20T09:55:01;26.50;99.90
11617;DHT22;5864;52.998;9.068;2023-07-20T09:57:47;26.50;99.90
11617;DHT22;5864;52.998;9.068;2023-07-20T10:00:34;26.20;99.90
11617;DHT22;5864;52.998;9.068;2023-07-20T10:03:23;26.70;99.90
11617;DHT22;5864;52.998;9.068;2023-07-20T10:06:14;27.10;99.90
11617;DHT22;5864;52.998;9.068;2023-07-20T10:09:03;27.30;99.90
11617;DHT22;5864;52.998;9.068;2023-07-20T10:11:53;27.40;99.90
11617;DHT22;5864;52.998;9.068;2023-07-20T10:14:42;27.20;99.90
11617;DHT22;5864;52.998;9.068;2023-07-20T10:17:28;27.30;99.90
11617;DHT22;5864;52.998;9.068;2023-07-20T10:20:16;27.30;99.90
11617;DHT22;5864;52.998;9.068;2023-07-20T10:23:04;27.60;99.90
11617;DHT22;5864;52.998;9.068;2023-07-20T10:25:52;28.20;99.90
11617;DHT22;5864;52.998;9.068;2023-07-20T10:28:38;27.30;99.90
11617;DHT22;5864;52.998;9.068;2023-07-20T10:31:25;26.70;99.90
11617;DHT22;5864;52.998;9.068;2023-07-20T10:34:13;27.20;99.90
11617;DHT22;5864;52.998;9.068;2023-07-20T10:36:59;28.00;99.90
11617;DHT22;5864;52.998;9.068;2023-07-20T10:39:44;28.10;99.90
11617;DHT22;5864;52.998;9.068;2023-07-20T10:42:34;26.90;99.90
11617;DHT22;5864;52.998;9.068;2023-07-20T10:45:20;26.40;99.90
11617;DHT22;5864;52.998;9.068;2023-07-20T10:48:12;25.50;99.90
11617;DHT22;5864;52.998;9.068;2023-07-20T10:51:19;24.50;99.90
11617;DHT22;5864;52.998;9.068;2023-07-20T10:54:07;23.40;99.90
11617;DHT22;5864;52.998;9.068;2023-07-20T10:56:55;22.30;99.90
11617;DHT22;5864;52.998;9.068;2023-07-20T10:59:42;22.20;99.90
11617;DHT22;5864;52.998;9.068;2023-07-20T11:02:28;21.90;99.90
11617;DHT22;5864;52.998;9.068;2023-07-20T11:05:35;21.90;99.90
11617;DHT22;5864;52.998;9.068;2023-07-20T11:08:39;21.90;99.90
11617;DHT22;5864;52.998;9.068;2023-07-20T11:11:27;22.10;99.90
11617;DHT22;5864;52.998;9.068;2023-07-20T11:14:21;22.20;99.90
11617;DHT22;5864;52.998;9.068;2023-07-20T11:17:13;22.40;99.90
11617;DHT22;5864;52.998;9.068;2023-07-20T11:19:59;23.20;99.90
11617;DHT22;5864;52.998;9.068;2023-07-20T11:22:46;23.50;99.90
11617;DHT22;5864;52.998;9.068;2023-07-20T11:25:37;23.80;99.90
11617;DHT22;5864;52.998;9.068;2023-07-20T11:28:23;23.90;99.90
11617;DHT22;5864;52.998;9.068;2023-07-20T11:31:08;24.40;99.90
11617;DHT22;5864;52.998;9.068;2023-07-20T11:33:55;24.80;99.90
11617;DHT22;5864;52.998;9.068;2023-07-20T11:36:42;25.10;99.90
11617;DHT22;5864;52.998;9.068;2023-07-20T11:39:29;24.90;99.90
11617;DHT22;5864;52.998;9.068;2023-07-20T11:42:14;25.30;99.90
11617;DHT22;5864;52.998;9.068;2023-07-20T11:45:02;24.80;99.90
11617;DHT22;5864;52.998;9.068;2023-07-20T11:47:49;25.40;99.90
11617;DHT22;5864;52.998;9.068;2023-07-20T11:50:40;25.40;99.90
11617;DHT22;5864;52.998;9.068;2023-07-20T11:53:25;26.10;99.90
11617;DHT22;5864;52.998;9.068;2023-07-20T11:56:11;26.20;99.90
11617;DHT22;5864;52.998;9.068;2023-07-20T11:58:58;26.10;99.90
11617;DHT22;5864;52.998;9.068;2023-07-20T12:01:45;26.60;99.90
11617;DHT22;5864;52.998;9.068;2023-07-20T12:04:31;26.50;99.90
11617;DHT22;5864;52.998;9.068;2023-07-20T12:07:18;26.90;99.90
11617;DHT22;5864;52.998;9.068;2023-07-20T12:10:24;27.30;99.90
11617;DHT22;5864;52.998;9.068;2023-07-20T12:13:11;27.20;99.90
11617;DHT22;5864;52.998;9.068;2023-07-20T12:15:56;27.10;99.90
11617;DHT22;5864;52.998;9.068;2023-07-20T12:18:59;27.40;99.90
11617;DHT22;5864;52.998;9.068;2023-07-20T12:21:45;27.30;99.90
11617;DHT22;5864;52.998;9.068;2023-07-20T12:24:30;27.40;99.90
11617;DHT22;5864;52.998;9.068;2023-07-20T12:27:17;27.40;99.90
11617;DHT22;5864;52.998;9.068;2023-07-20T12:30:04;27.80;99.90
11617;DHT22;5864;52.998;9.068;2023-07-20T12:32:50;27.80;99.90
11617;DHT22;5864;52.998;9.068;2023-07-20T12:35:35;27.00;99.90
11617;DHT22;5864;52.998;9.068;2023-07-20T12:38:21;26.10;99.90
11617;DHT22;5864;52.998;9.068;2023-07-20T12:41:07;24.30;99.90
11617;DHT22;5864;52.998;9.068;2023-07-20T12:43:53;24.10;99.90
11617;DHT22;5864;52.998;9.068;2023-07-20T12:46:41;23.00;99.90
11617;DHT22;5864;52.998;9.068;2023-07-20T12:49:27;22.00;99.90
11617;DHT22;5864;52.998;9.068;2023-07-20T12:52:12;21.80;99.90
11617;DHT22;5864;52.998;9.068;2023-07-20T12:54:58;21.80;99.90
11617;DHT22;5864;52.998;9.068;2023-07-20T12:57:46;21.70;99.90
11617;DHT22;5864;52.998;9.068;2023-07-20T13:00:33;21.50;99.90
11617;DHT22;5864;52.998;9.068;2023-07-20T13:03:19;21.50;99.90
11617;DHT22;5864;52.998;9.068;2023-07-20T13:06:05;21.60;99.90
11617;DHT22;5864;52.998;9.068;2023-07-20T13:08:50;21.60;99.90
11617;DHT22;5864;52.998;9.068;2023-07-20T13:11:39;21.50;99.90
11617;DHT22;5864;52.998;9.068;2023-07-20T13:14:25;21.60;99.90
11617;DHT22;5864;52.998;9.068;2023-07-20T13:17:12;21.70;99.90
11617;DHT22;5864;52.998;9.068;2023-07-20T13:19:58;21.70;99.90
11617;DHT22;5864;52.998;9.068;2023-07-20T13:22:43;21.50;99.90
11617;DHT22;5864;52.998;9.068;2023-07-20T13:25:30;21.50;99.90
11617;DHT22;5864;52.998;9.068;2023-07-20T13:28:15;21.70;99.90
11617;DHT22;5864;52.998;9.068;2023-07-20T13:31:02;21.80;99.90
11617;DHT22;5864;52.998;9.068;2023-07-20T13:33:49;21.80;99.90
11617;DHT22;5864;52.998;9.068;2023-07-20T13:36:34;21.90;99.90
11617;DHT22;5864;52.998;9.068;2023-07-20T13:39:20;22.00;99.90
11617;DHT22;5864;52.998;9.068;2023-07-20T13:42:08;22.00;99.90
11617;DHT22;5864;52.998;9.068;2023-07-20T13:44:55;21.90;99.90
11617;DHT22;5864;52.998;9.068;2023-07-20T13:47:40;21.90;99.90
11617;DHT22;5864;52.998;9.068;2023-07-20T13:50:27;21.90;99.90
11617;DHT22;5864;52.998;9.068;2023-07-20T13:53:13;21.80;99.90
11617;DHT22;5864;52.998;9.068;2023-07-20T13:56:00;21.70;99.90
11617;DHT22;5864;52.998;9.068;2023-07-20T13:58:48;22.00;99.90
11617;DHT22;5864;52.998;9.068;2023-07-20T14:01:34;22.20;99.90
11617;DHT22;5864;52.998;9.068;2023-07-20T14:04:20;22.10;99.90
11617;DHT22;5864;52.998;9.068;2023-07-20T14:07:07;22.00;99.90
11617;DHT22;5864;52.998;9.068;2023-07-20T14:09:52;21.90;99.90
11617;DHT22;5864;52.998;9.068;2023-07-20T14:12:38;21.60;99.90
11617;DHT22;5864;52.998;9.068;2023-07-20T14:15:23;21.80;99.90
11617;DHT22;5864;52.998;9.068;2023-07-20T14:18:09;21.70;99.90
11617;DHT22;5864;52.998;9.068;2023-07-20T14:20:55;22.00;99.90
11617;DHT22;5864;52.998;9.068;2023-07-20T14:23:41;22.50;99.90
11617;DHT22;5864;52.998;9.068;2023-07-20T14:26:27;23.10;99.90
11617;DHT22;5864;52.998;9.068;2023-07-20T14:29:12;23.50;99.90
11617;DHT22;5864;52.998;9.068;2023-07-20T14:31:58;23.80;99.90
11617;DHT22;5864;52.998;9.068;2023-07-20T14:34:43;23.70;99.90
11617;DHT22;5864;52.998;9.068;2023-07-20T14:37:29;23.30;99.90
11617;DHT22;5864;52.998;9.068;2023-07-20T14:40:16;23.20;99.90
11617;DHT22;5864;52.998;9.068;2023-07-20T14:43:02;23.20;99.90
11617;DHT22;5864;52.998;9.068;2023-07-20T14:45:47;23.10;99.90
11617;DHT22;5864;52.998;9.068;2023-07-20T14:48:33;23.10;99.90
11617;DHT22;5864;52.998;9.068;2023-07-20T14:51:19;22.90;99.90
11617;DHT22;5864;52.998;9.068;2023-07-20T14:54:06;22.70;99.90
11617;DHT22;5864;52.998;9.068;2023-07-20T14:56:53;22.80;99.90
11617;DHT22;5864;52.998;9.068;2023-07-20T14:59:40;22.70;99.90
11617;DHT22;5864;52.998;9.068;2023-07-20T15:02:26;22.60;99.90
11617;DHT22;5864;52.998;9.068;2023-07-20T15:05:11;22.40;99.90
11617;DHT22;5864;52.998;9.068;2023-07-20T15:07:57;22.40;99.90
11617;DHT22;5864;52.998;9.068;2023-07-20T15:10:43;22.50;99.90
11617;DHT22;5864;52.998;9.068;2023-07-20T15:13:31;22.50;99.90
11617;DHT22;5864;52.998;9.068;2023-07-20T15:16:17;22.50;99.90
11617;DHT22;5864;52.998;9.068;2023-07-20T15:19:02;22.40;99.90
11617;DHT22;5864;52.998;9.068;2023-07-20T15:21:49;22.20;99.90
11617;DHT22;5864;52.998;9.068;2023-07-20T15:24:35;22.30;99.90
11617;DHT22;5864;52.998;9.068;2023-07-20T15:27:20;22.40;99.90
11617;DHT22;5864;52.998;9.068;2023-07-20T15:30:08;22.60;99.90
11617;DHT22;5864;52.998;9.068;2023-07-20T15:32:54;22.60;99.90
11617;DHT22;5864;52.998;9.068;2023-07-20T15:35:41;22.30;99.90
11617;DHT22;5864;52.998;9.068;2023-07-20T15:38:26;22.20;99.90
11617;DHT22;5864;52.998;9.068;2023-07-20T15:41:12;22.10;99.90
11617;DHT22;5864;52.998;9.068;2023-07-20T15:43:59;22.30;99.90
11617;DHT22;5864;52.998;9.068;2023-07-20T15:46:47;22.40;99.90
11617;DHT22;5864;52.998;9.068;2023-07-20T15:49:32;22.00;99.90
11617;DHT22;5864;52.998;9.068;2023-07-20T15:52:18;21.90;99.90
11617;DHT22;5864;52.998;9.068;2023-07-20T15:55:05;22.10;99.90
11617;DHT22;5864;52.998;9.068;2023-07-20T15:57:51;21.80;99.90
11617;DHT22;5864;52.998;9.068;2023-07-20T16:00:36;22.00;99.90
11617;DHT22;5864;52.998;9.068;2023-07-20T16:03:23;21.90;99.90
11617;DHT22;5864;52.998;9.068;2023-07-20T16:06:10;22.10;99.90
11617;DHT22;5864;52.998;9.068;2023-07-20T16:08:55;22.00;99.90
11617;DHT22;5864;52.998;9.068;2023-07-20T16:11:41;22.20;99.90
11617;DHT22;5864;52.998;9.068;2023-07-20T16:14:26;22.20;99.90
11617;DHT22;5864;52.998;9.068;2023-07-20T16:17:12;22.20;99.90
11617;DHT22;5864;52.998;9.068;2023-07-20T16:19:59;22.30;99.90
11617;DHT22;5864;52.998;9.068;2023-07-20T16:22:45;22.30;99.90
11617;DHT22;5864;52.998;9.068;2023-07-20T16:25:30;22.30;99.90
11617;DHT22;5864;52.998;9.068;2023-07-20T16:28:16;22.00;99.90
11617;DHT22;5864;52.998;9.068;2023-07-20T16:31:08;22.00;99.90
11617;DHT22;5864;52.998;9.068;2023-07-20T16:33:54;21.90;99.90
11617;DHT22;5864;52.998;9.068;2023-07-20T16:36:41;22.40;99.90
11617;DHT22;5864;52.998;9.068;2023-07-20T16:39:26;22.00;99.90
11617;DHT22;5864;52.998;9.068;2023-07-20T16:42:12;21.90;99.90
11617;DHT22;5864;52.998;9.068;2023-07-20T16:44:58;21.70;99.90
11617;DHT22;5864;52.998;9.068;2023-07-20T16:47:44;21.70;99.90
11617;DHT22;5864;52.998;9.068;2023-07-20T16:50:29;21.40;99.90
11617;DHT22;5864;52.998;9.068;2023-07-20T16:53:16;21.40;99.90
11617;DHT22;5864;52.998;9.068;2023-07-20T16:56:02;21.30;99.90
11617;DHT22;5864;52.998;9.068;2023-07-20T16:58:47;21.30;99.90
11617;DHT22;5864;52.998;9.068;2023-07-20T17:01:33;21.30;99.90
11617;DHT22;5864;52.998;9.068;2023-07-20T17:04:19;21.30;99.90
11617;DHT22;5864;52.998;9.068;2023-07-20T17:07:05;21.30;99.90
11617;DHT22;5864;52.998;9.068;2023-07-20T17:09:52;21.20;99.90
11617;DHT22;5864;52.998;9.068;2023-07-20T17:12:38;21.00;99.90
11617;DHT22;5864;52.998;9.068;2023-07-20T17:15:25;21.00;99.90
11617;DHT22;5864;52.998;9.068;2023-07-20T17:18:10;20.90;99.90
11617;DHT22;5864;52.998;9.068;2023-07-20T17:20:56;20.90;99.90
11617;DHT22;5864;52.998;9.068;2023-07-20T17:23:42;20.90;99.90
11617;DHT22;5864;52.998;9.068;2023-07-20T17:26:28;20.90;99.90
11617;DHT22;5864;52.998;9.068;2023-07-20T17:29:14;20.80;99.90
11617;DHT22;5864;52.998;9.068;2023-07-20T17:32:00;20.70;99.90
11617;DHT22;5864;52.998;9.068;2023-07-20T17:34:45;20.60;99.90
11617;DHT22;5864;52.998;9.068;2023-07-20T17:37:31;20.50;99.90
11617;DHT22;5864;52.998;9.068;2023-07-20T17:40:17;20.30;99.90
11617;DHT22;5864;52.998;9.068;2023-07-20T17:43:05;20.30;99.90
11617;DHT22;5864;52.998;9.068;2023-07-20T17:45:50;19.90;1.00
11617;DHT22;5864;52.998;9.068;2023-07-20T17:48:36;19.30;99.90
11617;DHT22;5864;52.998;9.068;2023-07-20T17:51:22;19.00;1.00
11617;DHT22;5864;52.998;9.068;2023-07-20T17:54:08;18.90;99.90
11617;DHT22;5864;52.998;9.068;2023-07-20T17:56:54;18.60;90.10